sensor_id;sensor_type;location;lat;lon;timestamp;P1;durP1;ratioP1;P2;durP2;ratioP2
16193;SDS011;8204;53.582;10.080;2023-07-13T00:01:27;6.33;;;3.90;;
16193;SDS011;8204;53.582;10.080;2023-07-13T00:03:54;10.47;;;4.40;;
16193;SDS011;8204;53.582;10.080;2023-07-13T00:06:21;4.33;;;3.97;;
16193;SDS011;8204;53.582;10.080;2023-07-13T00:08:47;7.73;;;3.87;;
16193;SDS011;8204;53.582;10.080;2023-07-13T00:11:14;5.33;;;4.03;;
16193;SDS011;8204;53.582;10.080;2023-07-13T00:13:40;5.50;;;4.27;;
16193;SDS011;8204;53.582;10.080;2023-07-13T00:16:08;4.30;;;4.00;;
16193;SDS011;8204;53.582;10.080;2023-07-13T00:18:34;3.80;;;3.50;;
16193;SDS011;8204;53.582;10.080;2023-07-13T00:21:01;5.40;;;3.63;;
16193;SDS011;8204;53.582;10.080;2023-07-13T00:23:31;6.17;;;3.43;;
16193;SDS011;8204;53.582;10.080;2023-07-13T00:25:59;5.23;;;3.50;;
16193;SDS011;8204;53.582;10.080;2023-07-13T00:28:26;4.17;;;3.77;;
16193;SDS011;8204;53.582;10.080;2023-07-13T00:30:51;6.03;;;5.53;;
16193;SDS011;8204;53.582;10.080;2023-07-13T00:33:17;5.80;;;4.67;;
16193;SDS011;8204;53.582;10.080;2023-07-13T00:35:42;4.43;;;4.03;;
16193;SDS011;8204;53.582;10.080;2023-07-13T00:38:09;4.87;;;4.50;;
16193;SDS011;8204;53.582;10.080;2023-07-13T00:40:35;5.20;;;4.17;;
16193;SDS011;8204;53.582;10.080;2023-07-13T00:43:00;5.77;;;5.17;;
16193;SDS011;8204;53.582;10.080;2023-07-13T00:47:51;3.77;;;3.57;;
16193;SDS011;8204;53.582;10.080;2023-07-13T00:50:16;3.97;;;3.40;;
16193;SDS011;8204;53.582;10.080;2023-07-13T00:52:45;5.60;;;3.30;;
16193;SDS011;8204;53.582;10.080;2023-07-13T00:55:13;4.03;;;3.67;;
16193;SDS011;8204;53.582;10.080;2023-07-13T00:57:39;3.67;;;3.37;;
16193;SDS011;8204;53.582;10.080;2023-07-13T01:00:06;3.93;;;3.53;;
16193;SDS011;8204;53.582;10.080;2023-07-13T01:02:35;3.63;;;3.33;;
16193;SDS011;8204;53.582;10.080;2023-07-13T01:05:13;5.03;;;3.10;;
16193;SDS011;8204;53.582;10.080;2023-07-13T01:07:41;6.93;;;4.03;;
16193;SDS011;8204;53.582;10.080;2023-07-13T01:10:09;4.33;;;3.00;;
16193;SDS011;8204;53.582;10.080;2023-07-13T01:12:36;3.33;;;3.13;;
16193;SDS011;8204;53.582;10.080;2023-07-13T01:15:02;4.40;;;3.87;;
16193;SDS011;8204;53.582;10.080;2023-07-13T01:17:30;3.50;;;3.20;;
16193;SDS011;8204;53.582;10.080;2023-07-13T01:19:56;5.17;;;4.07;;
16193;SDS011;8204;53.582;10.080;2023-07-13T01:22:22;4.53;;;4.13;;
16193;SDS011;8204;53.582;10.080;2023-07-13T01:24:51;3.80;;;3.50;;
16193;SDS011;8204;53.582;10.080;2023-07-13T01:27:22;4.13;;;3.80;;
16193;SDS011;8204;53.582;10.080;2023-07-13T01:29:50;3.97;;;3.40;;
16193;SDS011;8204;53.582;10.080;2023-07-13T01:32:22;5.70;;;4.27;;
16193;SDS011;8204;53.582;10.080;2023-07-13T01:34:50;5.60;;;3.63;;
16193;SDS011;8204;53.582;10.080;2023-07-13T01:37:19;5.47;;;4.50;;
16193;SDS011;8204;53.582;10.080;2023-07-13T01:39:46;4.20;;;3.53;;
16193;SDS011;8204;53.582;10.080;2023-07-13T01:42:12;4.53;;;4.10;;
16193;SDS011;8204;53.582;10.080;2023-07-13T01:44:37;4.17;;;3.80;;
16193;SDS011;8204;53.582;10.080;2023-07-13T01:47:03;4.80;;;4.40;;
16193;SDS011;8204;53.582;10.080;2023-07-13T01:49:29;7.37;;;4.50;;
16193;SDS011;8204;53.582;10.080;2023-07-13T01:51:55;4.50;;;4.13;;
16193;SDS011;8204;53.582;10.080;2023-07-13T01:54:20;4.23;;;3.83;;
16193;SDS011;8204;53.582;10.080;2023-07-13T01:56:45;4.67;;;4.23;;
16193;SDS011;8204;53.582;10.080;2023-07-13T01:59:11;6.50;;;4.97;;
16193;SDS011;8204;53.582;10.080;2023-07-13T02:01:37;5.40;;;3.90;;
16193;SDS011;8204;53.582;10.080;2023-07-13T02:04:03;4.43;;;4.13;;
16193;SDS011;8204;53.582;10.080;2023-07-13T02:06:29;5.17;;;4.77;;
16193;SDS011;8204;53.582;10.080;2023-07-13T02:08:54;5.17;;;4.57;;
16193;SDS011;8204;53.582;10.080;2023-07-13T02:11:20;4.93;;;4.43;;
16193;SDS011;8204;53.582;10.080;2023-07-13T02:13:46;5.43;;;5.03;;
16193;SDS011;8204;53.582;10.080;2023-07-13T02:16:11;6.17;;;5.57;;
16193;SDS011;8204;53.582;10.080;2023-07-13T02:18:37;6.13;;;5.63;;
16193;SDS011;8204;53.582;10.080;2023-07-13T02:21:04;6.10;;;5.30;;
16193;SDS011;8204;53.582;10.080;2023-07-13T02:23:29;9.03;;;5.30;;
16193;SDS011;8204;53.582;10.080;2023-07-13T02:25:55;10.00;;;5.73;;
16193;SDS011;8204;53.582;10.080;2023-07-13T02:28:22;8.60;;;5.63;;
16193;SDS011;8204;53.582;10.080;2023-07-13T02:30:47;5.87;;;5.27;;
16193;SDS011;8204;53.582;10.080;2023-07-13T02:33:13;6.37;;;5.87;;
16193;SDS011;8204;53.582;10.080;2023-07-13T02:35:38;6.97;;;6.37;;
16193;SDS011;8204;53.582;10.080;2023-07-13T02:38:04;6.33;;;5.93;;
16193;SDS011;8204;53.582;10.080;2023-07-13T02:40:30;6.07;;;5.67;;
16193;SDS011;8204;53.582;10.080;2023-07-13T02:42:58;6.80;;;5.50;;
16193;SDS011;8204;53.582;10.080;2023-07-13T02:45:25;6.47;;;5.87;;
16193;SDS011;8204;53.582;10.080;2023-07-13T02:47:51;6.70;;;6.17;;
16193;SDS011;8204;53.582;10.080;2023-07-13T02:50:17;9.57;;;6.73;;
16193;SDS011;8204;53.582;10.080;2023-07-13T02:52:43;6.37;;;5.73;;
16193;SDS011;8204;53.582;10.080;2023-07-13T02:55:08;7.57;;;6.10;;
16193;SDS011;8204;53.582;10.080;2023-07-13T02:57:34;8.33;;;7.07;;
16193;SDS011;8204;53.582;10.080;2023-07-13T02:59:59;8.73;;;5.83;;
16193;SDS011;8204;53.582;10.080;2023-07-13T03:02:26;7.10;;;6.50;;
16193;SDS011;8204;53.582;10.080;2023-07-13T03:04:54;7.43;;;6.40;;
16193;SDS011;8204;53.582;10.080;2023-07-13T03:07:20;7.60;;;6.20;;
16193;SDS011;8204;53.582;10.080;2023-07-13T03:09:46;7.47;;;6.77;;
16193;SDS011;8204;53.582;10.080;2023-07-13T03:12:12;8.83;;;5.83;;
16193;SDS011;8204;53.582;10.080;2023-07-13T03:14:37;6.00;;;5.60;;
16193;SDS011;8204;53.582;10.080;2023-07-13T03:17:03;6.67;;;6.13;;
16193;SDS011;8204;53.582;10.080;2023-07-13T03:19:29;6.97;;;6.27;;
16193;SDS011;8204;53.582;10.080;2023-07-13T03:21:54;6.43;;;5.93;;
16193;SDS011;8204;53.582;10.080;2023-07-13T03:24:20;7.00;;;6.40;;
16193;SDS011;8204;53.582;10.080;2023-07-13T03:26:46;7.70;;;6.97;;
16193;SDS011;8204;53.582;10.080;2023-07-13T03:29:11;8.40;;;7.33;;
16193;SDS011;8204;53.582;10.080;2023-07-13T03:31:37;8.20;;;7.40;;
16193;SDS011;8204;53.582;10.080;2023-07-13T03:34:02;8.43;;;6.47;;
16193;SDS011;8204;53.582;10.080;2023-07-13T03:36:29;7.47;;;6.73;;
16193;SDS011;8204;53.582;10.080;2023-07-13T03:38:57;7.13;;;6.53;;
16193;SDS011;8204;53.582;10.080;2023-07-13T03:41:24;7.17;;;6.47;;
16193;SDS011;8204;53.582;10.080;2023-07-13T03:43:50;6.87;;;6.30;;
16193;SDS011;8204;53.582;10.080;2023-07-13T03:46:16;6.37;;;5.80;;
16193;SDS011;8204;53.582;10.080;2023-07-13T03:48:43;8.27;;;7.57;;
16193;SDS011;8204;53.582;10.080;2023-07-13T03:51:10;7.87;;;7.17;;
16193;SDS011;8204;53.582;10.080;2023-07-13T03:53:39;7.77;;;7.07;;
16193;SDS011;8204;53.582;10.080;2023-07-13T03:56:06;6.93;;;6.37;;
16193;SDS011;8204;53.582;10.080;2023-07-13T03:58:33;6.80;;;6.10;;
16193;SDS011;8204;53.582;10.080;2023-07-13T04:01:00;6.70;;;6.17;;
16193;SDS011;8204;53.582;10.080;2023-07-13T04:03:28;7.73;;;6.13;;
16193;SDS011;8204;53.582;10.080;2023-07-13T04:05:57;6.87;;;5.60;;
16193;SDS011;8204;53.582;10.080;2023-07-13T04:08:27;6.33;;;5.90;;
16193;SDS011;8204;53.582;10.080;2023-07-13T04:10:53;6.53;;;6.13;;
16193;SDS011;8204;53.582;10.080;2023-07-13T04:13:19;6.93;;;6.33;;
16193;SDS011;8204;53.582;10.080;2023-07-13T04:15:44;6.93;;;6.33;;
16193;SDS011;8204;53.582;10.080;2023-07-13T04:18:09;6.60;;;6.00;;
16193;SDS011;8204;53.582;10.080;2023-07-13T04:20:35;8.93;;;7.10;;
16193;SDS011;8204;53.582;10.080;2023-07-13T04:23:00;9.00;;;6.83;;
16193;SDS011;8204;53.582;10.080;2023-07-13T04:25:26;6.17;;;5.63;;
16193;SDS011;8204;53.582;10.080;2023-07-13T04:27:52;6.80;;;6.10;;
16193;SDS011;8204;53.582;10.080;2023-07-13T04:30:18;6.37;;;5.70;;
16193;SDS011;8204;53.582;10.080;2023-07-13T04:32:44;6.73;;;6.10;;
16193;SDS011;8204;53.582;10.080;2023-07-13T04:35:09;9.83;;;5.87;;
16193;SDS011;8204;53.582;10.080;2023-07-13T04:37:35;7.97;;;7.33;;
16193;SDS011;8204;53.582;10.080;2023-07-13T04:40:01;7.40;;;6.70;;
16193;SDS011;8204;53.582;10.080;2023-07-13T04:42:27;7.70;;;7.03;;
16193;SDS011;8204;53.582;10.080;2023-07-13T04:44:52;11.03;;;6.37;;
16193;SDS011;8204;53.582;10.080;2023-07-13T04:47:18;7.20;;;6.60;;
16193;SDS011;8204;53.582;10.080;2023-07-13T04:49:44;7.73;;;6.97;;
16193;SDS011;8204;53.582;10.080;2023-07-13T04:52:11;7.67;;;6.97;;
16193;SDS011;8204;53.582;10.080;2023-07-13T04:54:36;9.40;;;6.80;;
16193;SDS011;8204;53.582;10.080;2023-07-13T04:57:02;7.47;;;6.73;;
16193;SDS011;8204;53.582;10.080;2023-07-13T04:59:32;9.27;;;6.87;;
16193;SDS011;8204;53.582;10.080;2023-07-13T05:01:58;9.27;;;7.07;;
16193;SDS011;8204;53.582;10.080;2023-07-13T05:04:23;7.33;;;6.63;;
16193;SDS011;8204;53.582;10.080;2023-07-13T05:06:49;6.97;;;6.30;;
16193;SDS011;8204;53.582;10.080;2023-07-13T05:09:15;8.77;;;7.07;;
16193;SDS011;8204;53.582;10.080;2023-07-13T05:11:41;7.30;;;6.23;;
16193;SDS011;8204;53.582;10.080;2023-07-13T05:14:08;10.70;;;5.63;;
16193;SDS011;8204;53.582;10.080;2023-07-13T05:16:34;7.20;;;6.47;;
16193;SDS011;8204;53.582;10.080;2023-07-13T05:19:00;7.93;;;6.73;;
16193;SDS011;8204;53.582;10.080;2023-07-13T05:21:27;10.17;;;6.60;;
16193;SDS011;8204;53.582;10.080;2023-07-13T05:23:52;7.37;;;6.27;;
16193;SDS011;8204;53.582;10.080;2023-07-13T05:26:18;7.63;;;5.37;;
16193;SDS011;8204;53.582;10.080;2023-07-13T05:28:44;7.07;;;5.27;;
16193;SDS011;8204;53.582;10.080;2023-07-13T05:31:10;10.00;;;5.80;;
16193;SDS011;8204;53.582;10.080;2023-07-13T05:33:36;6.87;;;5.30;;
16193;SDS011;8204;53.582;10.080;2023-07-13T05:36:02;8.17;;;6.40;;
16193;SDS011;8204;53.582;10.080;2023-07-13T05:38:27;8.07;;;5.63;;
16193;SDS011;8204;53.582;10.080;2023-07-13T05:40:54;10.10;;;5.53;;
16193;SDS011;8204;53.582;10.080;2023-07-13T05:43:21;11.07;;;6.77;;
16193;SDS011;8204;53.582;10.080;2023-07-13T05:45:48;9.33;;;6.67;;
16193;SDS011;8204;53.582;10.080;2023-07-13T05:48:15;11.13;;;5.53;;
16193;SDS011;8204;53.582;10.080;2023-07-13T05:50:41;8.90;;;5.33;;
16193;SDS011;8204;53.582;10.080;2023-07-13T05:53:06;9.63;;;5.87;;
16193;SDS011;8204;53.582;10.080;2023-07-13T05:55:32;7.60;;;6.33;;
16193;SDS011;8204;53.582;10.080;2023-07-13T05:57:58;10.37;;;6.23;;
16193;SDS011;8204;53.582;10.080;2023-07-13T06:00:25;11.97;;;6.03;;
16193;SDS011;8204;53.582;10.080;2023-07-13T06:02:51;13.93;;;6.50;;
16193;SDS011;8204;53.582;10.080;2023-07-13T06:05:16;9.33;;;6.70;;
16193;SDS011;8204;53.582;10.080;2023-07-13T06:07:42;14.87;;;7.60;;
16193;SDS011;8204;53.582;10.080;2023-07-13T06:10:08;8.30;;;5.43;;
16193;SDS011;8204;53.582;10.080;2023-07-13T06:12:35;11.53;;;6.43;;
16193;SDS011;8204;53.582;10.080;2023-07-13T06:15:01;13.43;;;6.40;;
16193;SDS011;8204;53.582;10.080;2023-07-13T06:17:27;13.57;;;6.53;;
16193;SDS011;8204;53.582;10.080;2023-07-13T06:19:53;13.60;;;6.83;;
16193;SDS011;8204;53.582;10.080;2023-07-13T06:22:18;6.80;;;5.37;;
16193;SDS011;8204;53.582;10.080;2023-07-13T06:24:43;8.90;;;5.30;;
16193;SDS011;8204;53.582;10.080;2023-07-13T06:27:09;11.43;;;5.40;;
16193;SDS011;8204;53.582;10.080;2023-07-13T06:29:35;10.17;;;6.10;;
16193;SDS011;8204;53.582;10.080;2023-07-13T06:32:00;9.07;;;5.07;;
16193;SDS011;8204;53.582;10.080;2023-07-13T06:34:26;8.40;;;5.63;;
16193;SDS011;8204;53.582;10.080;2023-07-13T06:36:52;12.07;;;6.33;;
16193;SDS011;8204;53.582;10.080;2023-07-13T06:39:18;9.37;;;5.67;;
16193;SDS011;8204;53.582;10.080;2023-07-13T06:41:43;11.83;;;4.90;;
16193;SDS011;8204;53.582;10.080;2023-07-13T06:44:09;10.20;;;5.50;;
16193;SDS011;8204;53.582;10.080;2023-07-13T06:46:34;8.33;;;5.87;;
16193;SDS011;8204;53.582;10.080;2023-07-13T06:48:59;10.17;;;5.60;;
16193;SDS011;8204;53.582;10.080;2023-07-13T06:51:29;5.87;;;5.20;;
16193;SDS011;8204;53.582;10.080;2023-07-13T06:53:54;7.90;;;5.57;;
16193;SDS011;8204;53.582;10.080;2023-07-13T06:56:21;7.93;;;6.13;;
16193;SDS011;8204;53.582;10.080;2023-07-13T06:58:46;9.00;;;5.53;;
16193;SDS011;8204;53.582;10.080;2023-07-13T07:01:12;7.63;;;5.03;;
16193;SDS011;8204;53.582;10.080;2023-07-13T07:03:37;6.13;;;3.90;;
16193;SDS011;8204;53.582;10.080;2023-07-13T07:06:21;8.70;;;4.90;;
16193;SDS011;8204;53.582;10.080;2023-07-13T07:08:51;10.97;;;6.07;;
16193;SDS011;8204;53.582;10.080;2023-07-13T07:11:22;13.07;;;6.33;;
16193;SDS011;8204;53.582;10.080;2023-07-13T07:13:50;11.57;;;6.00;;
16193;SDS011;8204;53.582;10.080;2023-07-13T07:16:18;12.20;;;5.63;;
16193;SDS011;8204;53.582;10.080;2023-07-13T07:18:45;12.80;;;6.00;;
16193;SDS011;8204;53.582;10.080;2023-07-13T07:21:11;11.67;;;5.73;;
16193;SDS011;8204;53.582;10.080;2023-07-13T07:23:38;9.23;;;5.30;;
16193;SDS011;8204;53.582;10.080;2023-07-13T07:26:03;13.83;;;5.67;;
16193;SDS011;8204;53.582;10.080;2023-07-13T07:28:29;6.37;;;4.67;;
16193;SDS011;8204;53.582;10.080;2023-07-13T07:30:55;7.37;;;4.60;;
16193;SDS011;8204;53.582;10.080;2023-07-13T07:33:22;14.50;;;5.90;;
16193;SDS011;8204;53.582;10.080;2023-07-13T07:35:48;8.07;;;4.63;;
16193;SDS011;8204;53.582;10.080;2023-07-13T07:38:14;4.60;;;4.10;;
16193;SDS011;8204;53.582;10.080;2023-07-13T07:40:40;10.93;;;5.70;;
16193;SDS011;8204;53.582;10.080;2023-07-13T07:43:07;11.17;;;5.97;;
16193;SDS011;8204;53.582;10.080;2023-07-13T07:45:34;11.40;;;5.60;;
16193;SDS011;8204;53.582;10.080;2023-07-13T07:48:00;10.43;;;5.47;;
16193;SDS011;8204;53.582;10.080;2023-07-13T07:50:26;11.77;;;4.67;;
16193;SDS011;8204;53.582;10.080;2023-07-13T07:52:51;9.30;;;4.50;;
16193;SDS011;8204;53.582;10.080;2023-07-13T07:55:18;11.83;;;5.10;;
16193;SDS011;8204;53.582;10.080;2023-07-13T07:57:43;8.40;;;4.93;;
16193;SDS011;8204;53.582;10.080;2023-07-13T08:00:09;9.70;;;4.93;;
16193;SDS011;8204;53.582;10.080;2023-07-13T08:02:35;10.70;;;4.97;;
16193;SDS011;8204;53.582;10.080;2023-07-13T08:05:01;6.43;;;4.93;;
16193;SDS011;8204;53.582;10.080;2023-07-13T08:07:27;7.87;;;4.77;;
16193;SDS011;8204;53.582;10.080;2023-07-13T08:09:53;6.80;;;4.77;;
16193;SDS011;8204;53.582;10.080;2023-07-13T08:12:18;8.17;;;5.13;;
16193;SDS011;8204;53.582;10.080;2023-07-13T08:14:44;6.07;;;4.83;;
16193;SDS011;8204;53.582;10.080;2023-07-13T08:17:10;10.77;;;5.23;;
16193;SDS011;8204;53.582;10.080;2023-07-13T08:19:35;5.27;;;4.60;;
16193;SDS011;8204;53.582;10.080;2023-07-13T08:22:00;6.90;;;4.77;;
16193;SDS011;8204;53.582;10.080;2023-07-13T08:24:26;7.17;;;4.57;;
16193;SDS011;8204;53.582;10.080;2023-07-13T08:26:51;7.33;;;5.37;;
16193;SDS011;8204;53.582;10.080;2023-07-13T08:29:18;7.33;;;3.93;;
16193;SDS011;8204;53.582;10.080;2023-07-13T08:31:43;10.77;;;4.73;;
16193;SDS011;8204;53.582;10.080;2023-07-13T08:34:10;11.63;;;5.80;;
16193;SDS011;8204;53.582;10.080;2023-07-13T08:36:36;9.57;;;4.80;;
16193;SDS011;8204;53.582;10.080;2023-07-13T08:39:02;9.07;;;4.90;;
16193;SDS011;8204;53.582;10.080;2023-07-13T08:41:28;10.10;;;4.33;;
16193;SDS011;8204;53.582;10.080;2023-07-13T08:43:57;6.53;;;3.87;;
16193;SDS011;8204;53.582;10.080;2023-07-13T08:46:27;9.77;;;5.27;;
16193;SDS011;8204;53.582;10.080;2023-07-13T08:49:01;10.73;;;5.10;;
16193;SDS011;8204;53.582;10.080;2023-07-13T08:51:38;5.63;;;4.63;;
16193;SDS011;8204;53.582;10.080;2023-07-13T08:54:23;6.63;;;4.60;;
16193;SDS011;8204;53.582;10.080;2023-07-13T08:56:54;8.10;;;4.83;;
16193;SDS011;8204;53.582;10.080;2023-07-13T08:59:24;5.17;;;4.23;;
16193;SDS011;8204;53.582;10.080;2023-07-13T09:04:43;9.07;;;5.20;;
16193;SDS011;8204;53.582;10.080;2023-07-13T09:07:18;7.47;;;4.50;;
16193;SDS011;8204;53.582;10.080;2023-07-13T09:10:11;6.07;;;4.43;;
16193;SDS011;8204;53.582;10.080;2023-07-13T09:12:57;10.80;;;4.97;;
16193;SDS011;8204;53.582;10.080;2023-07-13T09:15:31;7.93;;;5.13;;
16193;SDS011;8204;53.582;10.080;2023-07-13T09:18:02;6.93;;;4.90;;
16193;SDS011;8204;53.582;10.080;2023-07-13T09:20:47;6.90;;;4.50;;
16193;SDS011;8204;53.582;10.080;2023-07-13T09:23:17;6.17;;;3.90;;
16193;SDS011;8204;53.582;10.080;2023-07-13T09:25:47;6.40;;;3.87;;
16193;SDS011;8204;53.582;10.080;2023-07-13T09:28:23;7.17;;;4.00;;
16193;SDS011;8204;53.582;10.080;2023-07-13T09:31:01;5.10;;;2.97;;
16193;SDS011;8204;53.582;10.080;2023-07-13T09:33:31;6.40;;;4.77;;
16193;SDS011;8204;53.582;10.080;2023-07-13T09:35:58;8.40;;;3.87;;
16193;SDS011;8204;53.582;10.080;2023-07-13T09:38:24;5.33;;;4.10;;
16193;SDS011;8204;53.582;10.080;2023-07-13T09:41:04;6.90;;;3.73;;
16193;SDS011;8204;53.582;10.080;2023-07-13T09:44:00;4.57;;;3.67;;
16193;SDS011;8204;53.582;10.080;2023-07-13T09:46:27;6.90;;;4.60;;
16193;SDS011;8204;53.582;10.080;2023-07-13T09:48:54;9.80;;;4.13;;
16193;SDS011;8204;53.582;10.080;2023-07-13T09:51:21;6.60;;;3.53;;
16193;SDS011;8204;53.582;10.080;2023-07-13T09:53:47;5.90;;;3.47;;
16193;SDS011;8204;53.582;10.080;2023-07-13T09:56:20;5.83;;;5.13;;
16193;SDS011;8204;53.582;10.080;2023-07-13T09:58:48;4.27;;;3.83;;
16193;SDS011;8204;53.582;10.080;2023-07-13T10:01:14;5.73;;;4.17;;
16193;SDS011;8204;53.582;10.080;2023-07-13T10:03:43;7.70;;;4.13;;
16193;SDS011;8204;53.582;10.080;2023-07-13T10:06:19;5.10;;;4.50;;
16193;SDS011;8204;53.582;10.080;2023-07-13T10:08:52;6.37;;;3.70;;
16193;SDS011;8204;53.582;10.080;2023-07-13T10:11:22;6.00;;;3.77;;
16193;SDS011;8204;53.582;10.080;2023-07-13T10:16:34;4.63;;;4.13;;
16193;SDS011;8204;53.582;10.080;2023-07-13T10:19:13;7.57;;;3.90;;
16193;SDS011;8204;53.582;10.080;2023-07-13T10:22:02;8.93;;;4.37;;
16193;SDS011;8204;53.582;10.080;2023-07-13T10:24:40;10.00;;;4.47;;
16193;SDS011;8204;53.582;10.080;2023-07-13T10:27:19;6.57;;;3.80;;
16193;SDS011;8204;53.582;10.080;2023-07-13T10:32:40;6.03;;;4.13;;
16193;SDS011;8204;53.582;10.080;2023-07-13T10:35:08;8.93;;;4.47;;
16193;SDS011;8204;53.582;10.080;2023-07-13T10:37:48;5.10;;;3.47;;
16193;SDS011;8204;53.582;10.080;2023-07-13T10:40:20;6.17;;;4.40;;
16193;SDS011;8204;53.582;10.080;2023-07-13T10:42:53;5.80;;;3.63;;
16193;SDS011;8204;53.582;10.080;2023-07-13T10:45:22;4.93;;;4.40;;
16193;SDS011;8204;53.582;10.080;2023-07-13T10:47:51;5.33;;;3.90;;
16193;SDS011;8204;53.582;10.080;2023-07-13T10:50:23;6.27;;;4.10;;
16193;SDS011;8204;53.582;10.080;2023-07-13T10:53:03;5.17;;;4.43;;
16193;SDS011;8204;53.582;10.080;2023-07-13T10:58:21;5.57;;;3.97;;
16193;SDS011;8204;53.582;10.080;2023-07-13T11:03:32;4.80;;;3.03;;
16193;SDS011;8204;53.582;10.080;2023-07-13T11:06:08;8.17;;;3.37;;
16193;SDS011;8204;53.582;10.080;2023-07-13T11:11:31;8.13;;;4.10;;
16193;SDS011;8204;53.582;10.080;2023-07-13T11:14:01;4.73;;;3.70;;
16193;SDS011;8204;53.582;10.080;2023-07-13T11:16:34;7.73;;;3.27;;
16193;SDS011;8204;53.582;10.080;2023-07-13T11:24:52;5.07;;;3.07;;
16193;SDS011;8204;53.582;10.080;2023-07-13T11:27:42;4.67;;;3.57;;
16193;SDS011;8204;53.582;10.080;2023-07-13T11:33:47;4.33;;;2.80;;
16193;SDS011;8204;53.582;10.080;2023-07-13T11:35:46;3.30;;;2.93;;
16193;SDS011;8204;53.582;10.080;2023-07-13T11:38:17;5.43;;;2.93;;
16193;SDS011;8204;53.582;10.080;2023-07-13T11:40:48;3.20;;;2.90;;
16193;SDS011;8204;53.582;10.080;2023-07-13T11:43:18;5.27;;;2.90;;
16193;SDS011;8204;53.582;10.080;2023-07-13T11:45:44;2.70;;;2.17;;
16193;SDS011;8204;53.582;10.080;2023-07-13T11:48:19;3.63;;;3.07;;
16193;SDS011;8204;53.582;10.080;2023-07-13T11:50:50;5.20;;;2.90;;
16193;SDS011;8204;53.582;10.080;2023-07-13T11:53:26;2.73;;;2.53;;
16193;SDS011;8204;53.582;10.080;2023-07-13T11:55:54;5.30;;;3.30;;
16193;SDS011;8204;53.582;10.080;2023-07-13T11:58:21;2.53;;;2.33;;
16193;SDS011;8204;53.582;10.080;2023-07-13T12:00:50;3.83;;;2.97;;
16193;SDS011;8204;53.582;10.080;2023-07-13T12:03:18;4.90;;;3.10;;
16193;SDS011;8204;53.582;10.080;2023-07-13T12:05:59;4.37;;;3.17;;
16193;SDS011;8204;53.582;10.080;2023-07-13T12:08:27;3.63;;;3.00;;
16193;SDS011;8204;53.582;10.080;2023-07-13T12:10:57;4.53;;;3.50;;
16193;SDS011;8204;53.582;10.080;2023-07-13T12:13:34;4.30;;;2.67;;
16193;SDS011;8204;53.582;10.080;2023-07-13T12:16:01;3.73;;;2.83;;
16193;SDS011;8204;53.582;10.080;2023-07-13T12:18:30;3.50;;;3.00;;
16193;SDS011;8204;53.582;10.080;2023-07-13T12:20:59;4.17;;;3.07;;
16193;SDS011;8204;53.582;10.080;2023-07-13T12:23:27;4.70;;;3.40;;
16193;SDS011;8204;53.582;10.080;2023-07-13T12:25:55;3.90;;;3.23;;
16193;SDS011;8204;53.582;10.080;2023-07-13T12:28:28;7.90;;;4.10;;
16193;SDS011;8204;53.582;10.080;2023-07-13T12:30:58;7.50;;;4.17;;
16193;SDS011;8204;53.582;10.080;2023-07-13T12:33:29;5.40;;;3.47;;
16193;SDS011;8204;53.582;10.080;2023-07-13T12:35:57;7.37;;;3.10;;
16193;SDS011;8204;53.582;10.080;2023-07-13T12:38:27;5.40;;;3.50;;
16193;SDS011;8204;53.582;10.080;2023-07-13T12:40:53;4.13;;;3.67;;
16193;SDS011;8204;53.582;10.080;2023-07-13T12:43:20;7.20;;;4.13;;
16193;SDS011;8204;53.582;10.080;2023-07-13T12:48:43;4.63;;;3.97;;
16193;SDS011;8204;53.582;10.080;2023-07-13T12:51:13;8.43;;;4.77;;
16193;SDS011;8204;53.582;10.080;2023-07-13T12:53:41;5.10;;;4.60;;
16193;SDS011;8204;53.582;10.080;2023-07-13T12:56:08;7.43;;;5.47;;
16193;SDS011;8204;53.582;10.080;2023-07-13T12:58:46;7.17;;;5.07;;
16193;SDS011;8204;53.582;10.080;2023-07-13T13:01:15;11.37;;;6.43;;
16193;SDS011;8204;53.582;10.080;2023-07-13T13:03:46;5.37;;;4.87;;
16193;SDS011;8204;53.582;10.080;2023-07-13T13:08:45;8.47;;;6.70;;
16193;SDS011;8204;53.582;10.080;2023-07-13T13:11:11;6.77;;;6.07;;
16193;SDS011;8204;53.582;10.080;2023-07-13T13:13:37;7.33;;;6.03;;
16193;SDS011;8204;53.582;10.080;2023-07-13T13:16:08;6.70;;;5.80;;
16193;SDS011;8204;53.582;10.080;2023-07-13T13:18:34;8.53;;;5.87;;
16193;SDS011;8204;53.582;10.080;2023-07-13T13:21:01;6.73;;;6.03;;
16193;SDS011;8204;53.582;10.080;2023-07-13T13:23:26;8.53;;;6.40;;
16193;SDS011;8204;53.582;10.080;2023-07-13T13:25:52;5.27;;;4.77;;
16193;SDS011;8204;53.582;10.080;2023-07-13T13:28:19;5.73;;;5.17;;
16193;SDS011;8204;53.582;10.080;2023-07-13T13:30:46;5.27;;;4.53;;
16193;SDS011;8204;53.582;10.080;2023-07-13T13:33:14;5.60;;;5.10;;
16193;SDS011;8204;53.582;10.080;2023-07-13T13:35:41;6.03;;;5.57;;
16193;SDS011;8204;53.582;10.080;2023-07-13T13:38:13;7.00;;;5.60;;
16193;SDS011;8204;53.582;10.080;2023-07-13T13:40:41;6.67;;;6.07;;
16193;SDS011;8204;53.582;10.080;2023-07-13T13:43:13;6.63;;;5.80;;
16193;SDS011;8204;53.582;10.080;2023-07-13T13:45:52;6.13;;;5.60;;
16193;SDS011;8204;53.582;10.080;2023-07-13T13:48:28;7.67;;;5.47;;
16193;SDS011;8204;53.582;10.080;2023-07-13T13:50:57;8.00;;;6.30;;
16193;SDS011;8204;53.582;10.080;2023-07-13T13:53:23;5.73;;;4.87;;
16193;SDS011;8204;53.582;10.080;2023-07-13T13:55:49;5.63;;;5.13;;
16193;SDS011;8204;53.582;10.080;2023-07-13T13:58:18;5.70;;;5.30;;
16193;SDS011;8204;53.582;10.080;2023-07-13T14:00:47;7.17;;;5.00;;
16193;SDS011;8204;53.582;10.080;2023-07-13T14:03:18;6.10;;;5.60;;
16193;SDS011;8204;53.582;10.080;2023-07-13T14:05:45;10.93;;;4.80;;
16193;SDS011;8204;53.582;10.080;2023-07-13T14:08:15;6.23;;;4.90;;
16193;SDS011;8204;53.582;10.080;2023-07-13T14:10:47;8.90;;;5.20;;
16193;SDS011;8204;53.582;10.080;2023-07-13T14:13:17;8.33;;;4.50;;
16193;SDS011;8204;53.582;10.080;2023-07-13T14:15:46;5.97;;;5.47;;
16193;SDS011;8204;53.582;10.080;2023-07-13T14:18:11;6.00;;;5.43;;
16193;SDS011;8204;53.582;10.080;2023-07-13T14:20:37;5.47;;;5.00;;
16193;SDS011;8204;53.582;10.080;2023-07-13T14:23:03;4.83;;;4.30;;
16193;SDS011;8204;53.582;10.080;2023-07-13T14:25:28;6.23;;;5.33;;
16193;SDS011;8204;53.582;10.080;2023-07-13T14:27:58;5.37;;;4.90;;
16193;SDS011;8204;53.582;10.080;2023-07-13T14:30:26;5.67;;;5.10;;
16193;SDS011;8204;53.582;10.080;2023-07-13T14:32:52;5.03;;;4.63;;
16193;SDS011;8204;53.582;10.080;2023-07-13T14:35:20;4.93;;;4.53;;
16193;SDS011;8204;53.582;10.080;2023-07-13T14:37:48;5.27;;;4.77;;
16193;SDS011;8204;53.582;10.080;2023-07-13T14:40:17;5.43;;;4.93;;
16193;SDS011;8204;53.582;10.080;2023-07-13T14:42:53;4.73;;;4.43;;
16193;SDS011;8204;53.582;10.080;2023-07-13T14:45:19;6.77;;;4.37;;
16193;SDS011;8204;53.582;10.080;2023-07-13T14:47:46;6.03;;;5.53;;
16193;SDS011;8204;53.582;10.080;2023-07-13T14:50:19;5.00;;;4.60;;
16193;SDS011;8204;53.582;10.080;2023-07-13T14:52:49;4.20;;;3.90;;
16193;SDS011;8204;53.582;10.080;2023-07-13T14:55:15;5.20;;;4.53;;
16193;SDS011;8204;53.582;10.080;2023-07-13T14:57:42;3.83;;;3.50;;
16193;SDS011;8204;53.582;10.080;2023-07-13T15:00:14;4.10;;;3.80;;
16193;SDS011;8204;53.582;10.080;2023-07-13T15:02:42;4.97;;;4.57;;
16193;SDS011;8204;53.582;10.080;2023-07-13T15:05:24;3.93;;;3.63;;
16193;SDS011;8204;53.582;10.080;2023-07-13T15:07:52;4.00;;;3.80;;
16193;SDS011;8204;53.582;10.080;2023-07-13T15:10:20;5.37;;;4.87;;
16193;SDS011;8204;53.582;10.080;2023-07-13T15:12:47;4.60;;;4.10;;
16193;SDS011;8204;53.582;10.080;2023-07-13T15:15:13;5.07;;;4.10;;
16193;SDS011;8204;53.582;10.080;2023-07-13T15:17:43;4.83;;;4.10;;
16193;SDS011;8204;53.582;10.080;2023-07-13T15:20:32;4.47;;;3.33;;
16193;SDS011;8204;53.582;10.080;2023-07-13T15:23:00;5.30;;;4.03;;
16193;SDS011;8204;53.582;10.080;2023-07-13T15:25:27;4.30;;;3.90;;